PWSweather.com
Personal Weather Stations
Station Observations
KMICHEBO10
Cordwood Point, Lake Huron, Cheboygan, MI 49721

Cordwood Point, Lake HuronCheboygan, MI 49721

Lat: 45.663372, Lon: -84.3327789

Elevation: 584

Station Type: Davis Vantage Pro2 Wireless

http://www.lakehuronweather.org

High Low Average
Temperature 18.6°F-7.4°C 4.4°F-15.3°C 13.9°F-10.1°C
Dew Point 16.2°F-8.8°C 1.1°F-17.2°C 9.9°F-12.3°C
Winds 6.9 mph 11.1 kmh Calm Calm 2.0 mph S3.2 kmh S
Wind Gusts 10.4 mph16.7 kmh -- 3.0 mph4.8 kmh
Humidity 90% 77% 84%
Pressure 30.47 in1031.8 mb 30.38 in1028.8 mb -
Precipitation 0.00 in0.0 mm - -
Hour Temp Dew Point Humidity Winds Wind Gusts Pressure Precip Precip Rate Daily Precip Total
12:00 AM 19.0°F-7.2°C 16.3°F-8.7°C 89% 4.6 mph NE7.4 kmh NE 6.9 mph11.1 kmh 30.39 in1029.1 mb - 0.00 in0.0 mm 0.00 in0.0 mm
12:10 AM 19.1°F-7.2°C 16.7°F-8.5°C 90% 5.8 mph ENE9.3 kmh ENE 11.5 mph18.5 kmh 30.39 in1029.1 mb - 0.00 in0.0 mm 0.00 in0.0 mm
12:20 AM 18.9°F-7.3°C 16.2°F-8.8°C 89% 3.5 mph E5.6 kmh E 10.4 mph16.7 kmh 30.39 in1029.1 mb - 0.00 in0.0 mm 0.00 in0.0 mm
12:30 AM 18.8°F-7.3°C 16.4°F-8.7°C 90% 5.8 mph ENE9.3 kmh ENE 11.5 mph18.5 kmh 30.39 in1029.1 mb - 0.00 in0.0 mm 0.00 in0.0 mm
12:40 AM 18.6°F-7.4°C 16.2°F-8.8°C 90% 4.6 mph E7.4 kmh E 9.2 mph14.8 kmh 30.39 in1029.1 mb - 0.00 in0.0 mm 0.00 in0.0 mm
12:50 AM 18.7°F-7.4°C 16.3°F-8.7°C 90% 5.8 mph E9.3 kmh E 9.2 mph14.8 kmh 30.39 in1029.1 mb - 0.00 in0.0 mm 0.00 in0.0 mm
01:00 AM 18.6°F-7.4°C 15.9°F-8.9°C 89% 4.6 mph ENE7.4 kmh ENE 5.8 mph9.3 kmh 30.39 in1029.1 mb - 0.00 in0.0 mm 0.00 in0.0 mm
01:10 AM 18.6°F-7.4°C 16.2°F-8.8°C 90% 3.5 mph NE5.6 kmh NE 5.8 mph9.3 kmh 30.39 in1029.1 mb - 0.00 in0.0 mm 0.00 in0.0 mm
01:20 AM 18.5°F-7.5°C 16.1°F-8.8°C 90% 6.9 mph E11.1 kmh E 10.4 mph16.7 kmh 30.39 in1029.1 mb - 0.00 in0.0 mm 0.00 in0.0 mm
01:30 AM 18.5°F-7.5°C 16.1°F-8.8°C 90% 3.5 mph ENE5.6 kmh ENE 3.5 mph5.6 kmh 30.39 in1029.1 mb - 0.00 in0.0 mm 0.00 in0.0 mm
01:40 AM 18.4°F-7.6°C 15.7°F-9.1°C 89% 3.5 mph NE5.6 kmh NE 9.2 mph14.8 kmh 30.39 in1029.1 mb - 0.00 in0.0 mm 0.00 in0.0 mm
01:50 AM 18.2°F-7.7°C 15.2°F-9.3°C 88% 3.5 mph NE5.6 kmh NE 8.1 mph13.0 kmh 30.38 in1028.8 mb - 0.00 in0.0 mm 0.00 in0.0 mm
02:00 AM 18.0°F-7.8°C 15.3°F-9.3°C 89% 3.5 mph NE5.6 kmh NE 9.2 mph14.8 kmh 30.38 in1028.8 mb - 0.00 in0.0 mm 0.00 in0.0 mm
02:10 AM 18.0°F-7.8°C 15.3°F-9.3°C 89% 3.5 mph NE5.6 kmh NE 8.1 mph13.0 kmh 30.38 in1028.8 mb - 0.00 in0.0 mm 0.00 in0.0 mm
02:20 AM 17.8°F-7.9°C 15.1°F-9.4°C 89% 4.6 mph NE7.4 kmh NE 10.4 mph16.7 kmh 30.38 in1028.8 mb - 0.00 in0.0 mm 0.00 in0.0 mm
02:30 AM 17.7°F-7.9°C 14.8°F-9.6°C 88% 3.5 mph NE5.6 kmh NE 4.6 mph7.4 kmh 30.38 in1028.8 mb - 0.00 in0.0 mm 0.00 in0.0 mm
02:40 AM 17.7°F-7.9°C 15.0°F-9.4°C 89% 2.3 mph NE3.7 kmh NE 4.6 mph7.4 kmh 30.38 in1028.8 mb - 0.00 in0.0 mm 0.00 in0.0 mm
02:50 AM 17.7°F-7.9°C 15.0°F-9.4°C 89% 1.2 mph ENE1.9 kmh ENE 6.9 mph11.1 kmh 30.38 in1028.8 mb - 0.00 in0.0 mm 0.00 in0.0 mm
03:00 AM 17.6°F-8.0°C 14.9°F-9.5°C 89% 3.5 mph NE5.6 kmh NE 5.8 mph9.3 kmh 30.38 in1028.8 mb - 0.00 in0.0 mm 0.00 in0.0 mm
03:10 AM 17.6°F-8.0°C 14.9°F-9.5°C 89% 3.5 mph ENE5.6 kmh ENE 6.9 mph11.1 kmh 30.38 in1028.8 mb - 0.00 in0.0 mm 0.00 in0.0 mm
03:20 AM 17.6°F-8.0°C 14.9°F-9.5°C 89% 3.5 mph NE5.6 kmh NE 4.6 mph7.4 kmh 30.39 in1029.1 mb - 0.00 in0.0 mm 0.00 in0.0 mm
03:30 AM 17.7°F-7.9°C 15.0°F-9.4°C 89% 1.2 mph NE1.9 kmh NE 4.6 mph7.4 kmh 30.39 in1029.1 mb - 0.00 in0.0 mm 0.00 in0.0 mm
03:40 AM 17.5°F-8.1°C 14.9°F-9.5°C 89% 1.2 mph NE1.9 kmh NE 2.3 mph3.7 kmh 30.39 in1029.1 mb - 0.00 in0.0 mm 0.00 in0.0 mm
03:50 AM 17.4°F-8.1°C 14.5°F-9.7°C 88% 3.5 mph ENE5.6 kmh ENE 5.8 mph9.3 kmh 30.39 in1029.1 mb - 0.00 in0.0 mm 0.00 in0.0 mm
04:00 AM 17.3°F-8.2°C 14.4°F-9.8°C 88% 2.3 mph NE3.7 kmh NE 4.6 mph7.4 kmh 30.39 in1029.1 mb - 0.00 in0.0 mm 0.00 in0.0 mm
04:10 AM 17.2°F-8.2°C 14.3°F-9.8°C 88% 1.2 mph NE1.9 kmh NE 2.3 mph3.7 kmh 30.40 in1029.5 mb - 0.00 in0.0 mm 0.00 in0.0 mm
04:20 AM 17.2°F-8.2°C 14.3°F-9.8°C 88% 2.3 mph NE3.7 kmh NE 3.5 mph5.6 kmh 30.40 in1029.5 mb - 0.00 in0.0 mm 0.00 in0.0 mm
04:30 AM 17.1°F-8.3°C 14.2°F-9.9°C 88% 2.3 mph NE3.7 kmh NE 5.8 mph9.3 kmh 30.40 in1029.5 mb - 0.00 in0.0 mm 0.00 in0.0 mm
04:40 AM 16.8°F-8.4°C 13.6°F-10.2°C 87% 1.2 mph E1.9 kmh E 2.3 mph3.7 kmh 30.40 in1029.5 mb - 0.00 in0.0 mm 0.00 in0.0 mm
04:50 AM 16.6°F-8.6°C 13.7°F-10.2°C 88% 2.3 mph NE3.7 kmh NE 5.8 mph9.3 kmh 30.40 in1029.5 mb - 0.00 in0.0 mm 0.00 in0.0 mm
05:00 AM 16.5°F-8.6°C 13.3°F-10.4°C 87% 1.2 mph NE1.9 kmh NE 3.5 mph5.6 kmh 30.40 in1029.5 mb - 0.00 in0.0 mm 0.00 in0.0 mm
05:10 AM 16.5°F-8.6°C 13.6°F-10.2°C 88% 1.2 mph NE1.9 kmh NE 5.8 mph9.3 kmh 30.40 in1029.5 mb - 0.00 in0.0 mm 0.00 in0.0 mm
05:20 AM 16.6°F-8.6°C 13.9°F-10.1°C 89% 2.3 mph NE3.7 kmh NE 6.9 mph11.1 kmh 30.40 in1029.5 mb - 0.00 in0.0 mm 0.00 in0.0 mm
05:30 AM 16.6°F-8.6°C 13.9°F-10.1°C 89% 1.2 mph NE1.9 kmh NE 4.6 mph7.4 kmh 30.41 in1029.8 mb - 0.00 in0.0 mm 0.00 in0.0 mm
05:40 AM 16.6°F-8.6°C 13.7°F-10.2°C 88% Calm Calm 2.3 mph3.7 kmh 30.41 in1029.8 mb - 0.00 in0.0 mm 0.00 in0.0 mm
05:50 AM 16.2°F-8.8°C 12.7°F-10.7°C 86% 2.3 mph NNE3.7 kmh NNE 3.5 mph5.6 kmh 30.41 in1029.8 mb - 0.00 in0.0 mm 0.00 in0.0 mm
06:00 AM 16.1°F-8.8°C 12.7°F-10.7°C 86% 1.2 mph E1.9 kmh E 2.3 mph3.7 kmh 30.41 in1029.8 mb - 0.00 in0.0 mm 0.00 in0.0 mm
06:10 AM 15.9°F-8.9°C 12.5°F-10.8°C 86% 1.2 mph NE1.9 kmh NE 4.6 mph7.4 kmh 30.41 in1029.8 mb - 0.00 in0.0 mm 0.00 in0.0 mm
06:20 AM 15.7°F-9.1°C 12.3°F-10.9°C 86% 1.2 mph ENE1.9 kmh ENE 3.5 mph5.6 kmh 30.41 in1029.8 mb - 0.00 in0.0 mm 0.00 in0.0 mm
06:30 AM 15.4°F-9.2°C 11.4°F-11.4°C 84% 2.3 mph E3.7 kmh E 3.5 mph5.6 kmh 30.41 in1029.8 mb - 0.00 in0.0 mm 0.00 in0.0 mm
06:40 AM 15.2°F-9.3°C 11.2°F-11.6°C 84% 1.2 mph NE1.9 kmh NE 3.5 mph5.6 kmh 30.41 in1029.8 mb - 0.00 in0.0 mm 0.00 in0.0 mm
06:50 AM 15.2°F-9.3°C 11.5°F-11.4°C 85% 1.2 mph E1.9 kmh E 5.8 mph9.3 kmh 30.41 in1029.8 mb - 0.00 in0.0 mm 0.00 in0.0 mm
07:00 AM 15.2°F-9.3°C 11.2°F-11.6°C 84% 3.5 mph E5.6 kmh E 2.3 mph3.7 kmh 30.42 in1030.1 mb - 0.00 in0.0 mm 0.00 in0.0 mm
07:10 AM 15.3°F-9.3°C 11.6°F-11.3°C 85% 2.3 mph NE3.7 kmh NE 3.5 mph5.6 kmh 30.42 in1030.1 mb - 0.00 in0.0 mm 0.00 in0.0 mm
07:20 AM 15.4°F-9.2°C 11.4°F-11.4°C 84% 3.5 mph ENE5.6 kmh ENE 8.1 mph13.0 kmh 30.42 in1030.1 mb - 0.00 in0.0 mm 0.00 in0.0 mm
07:30 AM 15.4°F-9.2°C 11.7°F-11.3°C 85% 2.3 mph N3.7 kmh N 2.3 mph3.7 kmh 30.43 in1030.5 mb - 0.00 in0.0 mm 0.00 in0.0 mm
07:40 AM 15.5°F-9.2°C 11.8°F-11.2°C 85% 3.5 mph N5.6 kmh N 5.8 mph9.3 kmh 30.43 in1030.5 mb - 0.00 in0.0 mm 0.00 in0.0 mm
07:50 AM 15.4°F-9.2°C 12.0°F-11.1°C 86% 1.2 mph NNE1.9 kmh NNE 2.3 mph3.7 kmh 30.43 in1030.5 mb - 0.00 in0.0 mm 0.00 in0.0 mm
08:00 AM 15.7°F-9.1°C 12.3°F-10.9°C 86% 1.2 mph NNE1.9 kmh NNE 3.5 mph5.6 kmh 30.43 in1030.5 mb - 0.00 in0.0 mm 0.00 in0.0 mm
08:10 AM 15.6°F-9.1°C 11.9°F-11.2°C 85% 2.3 mph NNW3.7 kmh NNW 3.5 mph5.6 kmh 30.43 in1030.5 mb - 0.00 in0.0 mm 0.00 in0.0 mm
08:20 AM 15.5°F-9.2°C 11.5°F-11.4°C 84% 1.2 mph N1.9 kmh N 2.3 mph3.7 kmh 30.43 in1030.5 mb - 0.00 in0.0 mm 0.00 in0.0 mm
08:30 AM 15.4°F-9.2°C 11.4°F-11.4°C 84% 1.2 mph N1.9 kmh N 3.5 mph5.6 kmh 30.44 in1030.8 mb - 0.00 in0.0 mm 0.00 in0.0 mm
08:40 AM 15.2°F-9.3°C 11.0°F-11.7°C 83% 2.3 mph NE3.7 kmh NE 3.5 mph5.6 kmh 30.44 in1030.8 mb - 0.00 in0.0 mm 0.00 in0.0 mm
08:50 AM 15.0°F-9.4°C 10.5°F-11.9°C 82% 1.2 mph NE1.9 kmh NE 3.5 mph5.6 kmh 30.44 in1030.8 mb - 0.00 in0.0 mm 0.00 in0.0 mm
09:00 AM 14.8°F-9.6°C 10.6°F-11.9°C 83% Calm Calm 1.2 mph1.9 kmh 30.44 in1030.8 mb - 0.00 in0.0 mm 0.00 in0.0 mm
09:10 AM 14.7°F-9.6°C 10.2°F-12.1°C 82% 1.2 mph E1.9 kmh E 2.3 mph3.7 kmh 30.43 in1030.5 mb - 0.00 in0.0 mm 0.00 in0.0 mm
09:20 AM 14.5°F-9.7°C 10.0°F-12.2°C 82% 1.2 mph NE1.9 kmh NE 2.3 mph3.7 kmh 30.44 in1030.8 mb - 0.00 in0.0 mm 0.00 in0.0 mm
09:30 AM 14.3°F-9.8°C 9.8°F-12.3°C 82% 1.2 mph NE1.9 kmh NE 3.5 mph5.6 kmh 30.44 in1030.8 mb - 0.00 in0.0 mm 0.00 in0.0 mm
09:40 AM 14.2°F-9.9°C 9.7°F-12.4°C 82% 1.2 mph NE1.9 kmh NE 2.3 mph3.7 kmh 30.43 in1030.5 mb - 0.00 in0.0 mm 0.00 in0.0 mm
09:50 AM 14.3°F-9.8°C 10.4°F-12.0°C 84% 1.2 mph N1.9 kmh N 2.3 mph3.7 kmh 30.43 in1030.5 mb - 0.00 in0.0 mm 0.00 in0.0 mm
10:00 AM 14.6°F-9.7°C 10.4°F-12.0°C 83% 2.3 mph E3.7 kmh E 4.6 mph7.4 kmh 30.44 in1030.8 mb - 0.00 in0.0 mm 0.00 in0.0 mm
10:10 AM 14.6°F-9.7°C 9.8°F-12.3°C 81% Calm Calm 3.5 mph5.6 kmh 30.44 in1030.8 mb - 0.00 in0.0 mm 0.00 in0.0 mm
10:20 AM 14.5°F-9.7°C 9.7°F-12.4°C 81% 2.3 mph NE3.7 kmh NE 3.5 mph5.6 kmh 30.45 in1031.2 mb - 0.00 in0.0 mm 0.00 in0.0 mm
10:30 AM 14.6°F-9.7°C 10.1°F-12.2°C 82% 1.2 mph NNE1.9 kmh NNE 2.3 mph3.7 kmh 30.45 in1031.2 mb - 0.00 in0.0 mm 0.00 in0.0 mm
10:40 AM 14.9°F-9.5°C 10.6°F-11.9°C 83% Calm Calm 1.2 mph1.9 kmh 30.45 in1031.2 mb - 0.00 in0.0 mm 0.00 in0.0 mm
10:50 AM 14.9°F-9.5°C 10.1°F-12.2°C 81% Calm Calm 1.2 mph1.9 kmh 30.45 in1031.2 mb - 0.00 in0.0 mm 0.00 in0.0 mm
11:00 AM 15.1°F-9.4°C 10.0°F-12.2°C 80% 1.2 mph NE1.9 kmh NE 2.3 mph3.7 kmh 30.46 in1031.5 mb - 0.00 in0.0 mm 0.00 in0.0 mm
11:10 AM 15.1°F-9.4°C 10.0°F-12.2°C 80% 3.5 mph ENE5.6 kmh ENE 9.2 mph14.8 kmh 30.46 in1031.5 mb - 0.00 in0.0 mm 0.00 in0.0 mm
11:20 AM 15.2°F-9.3°C 10.7°F-11.8°C 82% 1.2 mph ESE1.9 kmh ESE 2.3 mph3.7 kmh 30.46 in1031.5 mb - 0.00 in0.0 mm 0.00 in0.0 mm
11:30 AM 15.5°F-9.2°C 11.5°F-11.4°C 84% 1.2 mph NW1.9 kmh NW 3.5 mph5.6 kmh 30.46 in1031.5 mb - 0.00 in0.0 mm 0.00 in0.0 mm
11:40 AM 15.7°F-9.1°C 11.7°F-11.3°C 84% 2.3 mph NE3.7 kmh NE 2.3 mph3.7 kmh 30.47 in1031.8 mb - 0.00 in0.0 mm 0.00 in0.0 mm
11:50 AM 15.6°F-9.1°C 11.4°F-11.4°C 83% 1.2 mph N1.9 kmh N 2.3 mph3.7 kmh 30.47 in1031.8 mb - 0.00 in0.0 mm 0.00 in0.0 mm
12:00 PM 15.7°F-9.1°C 11.5°F-11.4°C 83% 1.2 mph NNE1.9 kmh NNE 3.5 mph5.6 kmh 30.47 in1031.8 mb - 0.00 in0.0 mm 0.00 in0.0 mm
12:10 PM 15.9°F-8.9°C 11.7°F-11.3°C 83% 1.2 mph NNE1.9 kmh NNE 3.5 mph5.6 kmh 30.47 in1031.8 mb - 0.00 in0.0 mm 0.00 in0.0 mm
12:20 PM 15.7°F-9.1°C 10.9°F-11.7°C 81% 1.2 mph N1.9 kmh N 1.2 mph1.9 kmh 30.46 in1031.5 mb - 0.00 in0.0 mm 0.00 in0.0 mm
12:30 PM 15.8°F-9.0°C 11.3°F-11.5°C 82% 1.2 mph N1.9 kmh N 2.3 mph3.7 kmh 30.46 in1031.5 mb - 0.00 in0.0 mm 0.00 in0.0 mm
12:40 PM 15.7°F-9.1°C 11.2°F-11.6°C 82% Calm Calm 1.2 mph1.9 kmh 30.46 in1031.5 mb - 0.00 in0.0 mm 0.00 in0.0 mm
12:50 PM 15.5°F-9.2°C 10.7°F-11.8°C 81% 1.2 mph N1.9 kmh N 2.3 mph3.7 kmh 30.46 in1031.5 mb - 0.00 in0.0 mm 0.00 in0.0 mm
01:00 PM 15.6°F-9.1°C 10.8°F-11.8°C 81% 2.3 mph N3.7 kmh N 3.5 mph5.6 kmh 30.45 in1031.2 mb - 0.00 in0.0 mm 0.00 in0.0 mm
01:10 PM 15.4°F-9.2°C 10.4°F-12.0°C 80% 1.2 mph N1.9 kmh N 2.3 mph3.7 kmh 30.45 in1031.2 mb - 0.00 in0.0 mm 0.00 in0.0 mm
01:20 PM 15.4°F-9.2°C 10.3°F-12.1°C 80% 1.2 mph N1.9 kmh N 2.3 mph3.7 kmh 30.44 in1030.8 mb - 0.00 in0.0 mm 0.00 in0.0 mm
01:30 PM 15.3°F-9.3°C 10.2°F-12.1°C 80% 1.2 mph NNW1.9 kmh NNW 3.5 mph5.6 kmh 30.44 in1030.8 mb - 0.00 in0.0 mm 0.00 in0.0 mm
01:40 PM 15.3°F-9.3°C 10.2°F-12.1°C 80% 2.3 mph N3.7 kmh N 3.5 mph5.6 kmh 30.44 in1030.8 mb - 0.00 in0.0 mm 0.00 in0.0 mm
01:50 PM 15.2°F-9.3°C 9.9°F-12.3°C 79% 2.3 mph NW3.7 kmh NW 2.3 mph3.7 kmh 30.43 in1030.5 mb - 0.00 in0.0 mm 0.00 in0.0 mm
02:00 PM 15.3°F-9.3°C 9.6°F-12.4°C 78% 1.2 mph N1.9 kmh N 1.2 mph1.9 kmh 30.43 in1030.5 mb - 0.00 in0.0 mm 0.00 in0.0 mm
02:10 PM 15.3°F-9.3°C 10.2°F-12.1°C 80% 2.3 mph NNW3.7 kmh NNW 2.3 mph3.7 kmh 30.43 in1030.5 mb - 0.00 in0.0 mm 0.00 in0.0 mm
02:20 PM 15.3°F-9.3°C 10.2°F-12.1°C 80% 1.2 mph N1.9 kmh N 1.2 mph1.9 kmh 30.43 in1030.5 mb - 0.00 in0.0 mm 0.00 in0.0 mm
02:30 PM 15.3°F-9.3°C 9.4°F-12.6°C 77% Calm Calm 1.2 mph1.9 kmh 30.43 in1030.5 mb - 0.00 in0.0 mm 0.00 in0.0 mm
02:40 PM 15.4°F-9.2°C 9.8°F-12.3°C 78% 1.2 mph N1.9 kmh N 1.2 mph1.9 kmh 30.43 in1030.5 mb - 0.00 in0.0 mm 0.00 in0.0 mm
02:50 PM 15.9°F-8.9°C 9.9°F-12.3°C 77% 2.3 mph NNW3.7 kmh NNW 3.5 mph5.6 kmh 30.43 in1030.5 mb - 0.00 in0.0 mm 0.00 in0.0 mm
03:00 PM 15.8°F-9.0°C 9.9°F-12.3°C 77% 2.3 mph NNW3.7 kmh NNW 5.8 mph9.3 kmh 30.43 in1030.5 mb - 0.00 in0.0 mm 0.00 in0.0 mm
03:10 PM 15.8°F-9.0°C 9.9°F-12.3°C 77% Calm Calm 1.2 mph1.9 kmh 30.42 in1030.1 mb - 0.00 in0.0 mm 0.00 in0.0 mm
03:20 PM 16.1°F-8.8°C 11.1°F-11.6°C 80% Calm Calm 1.2 mph1.9 kmh 30.42 in1030.1 mb - 0.00 in0.0 mm 0.00 in0.0 mm
03:30 PM 16.0°F-8.9°C 10.3°F-12.1°C 78% 1.2 mph N1.9 kmh N 3.5 mph5.6 kmh 30.42 in1030.1 mb - 0.00 in0.0 mm 0.00 in0.0 mm
03:40 PM 15.8°F-9.0°C 9.8°F-12.3°C 77% 2.3 mph NNW3.7 kmh NNW 5.8 mph9.3 kmh 30.42 in1030.1 mb - 0.00 in0.0 mm 0.00 in0.0 mm
03:50 PM 15.8°F-9.0°C 10.4°F-12.0°C 79% 2.3 mph N3.7 kmh N 5.8 mph9.3 kmh 30.42 in1030.1 mb - 0.00 in0.0 mm 0.00 in0.0 mm
04:00 PM 16.4°F-8.7°C 11.0°F-11.7°C 79% 1.2 mph N1.9 kmh N 2.3 mph3.7 kmh 30.42 in1030.1 mb - 0.00 in0.0 mm 0.00 in0.0 mm
04:10 PM 16.8°F-8.4°C 11.1°F-11.6°C 78% 1.2 mph NW1.9 kmh NW 3.5 mph5.6 kmh 30.42 in1030.1 mb - 0.00 in0.0 mm 0.00 in0.0 mm
04:20 PM 16.6°F-8.6°C 10.6°F-11.9°C 77% 1.2 mph WSW1.9 kmh WSW 2.3 mph3.7 kmh 30.42 in1030.1 mb - 0.00 in0.0 mm 0.00 in0.0 mm
04:30 PM 16.4°F-8.7°C 10.4°F-12.0°C 77% 1.2 mph W1.9 kmh W 2.3 mph3.7 kmh 30.42 in1030.1 mb - 0.00 in0.0 mm 0.00 in0.0 mm
04:40 PM 16.1°F-8.8°C 10.2°F-12.1°C 77% 1.2 mph W1.9 kmh W 2.3 mph3.7 kmh 30.42 in1030.1 mb - 0.00 in0.0 mm 0.00 in0.0 mm
04:50 PM 15.9°F-8.9°C 10.5°F-11.9°C 79% Calm Calm 2.3 mph3.7 kmh 30.42 in1030.1 mb - 0.00 in0.0 mm 0.00 in0.0 mm
05:00 PM 15.8°F-9.0°C 10.5°F-11.9°C 79% 1.2 mph NW1.9 kmh NW 2.3 mph3.7 kmh 30.42 in1030.1 mb - 0.00 in0.0 mm 0.00 in0.0 mm
05:10 PM 15.7°F-9.1°C 10.3°F-12.1°C 79% Calm Calm 2.3 mph3.7 kmh 30.43 in1030.5 mb - 0.00 in0.0 mm 0.00 in0.0 mm
05:20 PM 15.7°F-9.1°C 10.3°F-12.1°C 79% 1.2 mph N1.9 kmh N 2.3 mph3.7 kmh 30.43 in1030.5 mb - 0.00 in0.0 mm 0.00 in0.0 mm
05:30 PM 15.4°F-9.2°C 10.1°F-12.2°C 79% 1.2 mph W1.9 kmh W 3.5 mph5.6 kmh 30.43 in1030.5 mb - 0.00 in0.0 mm 0.00 in0.0 mm
05:40 PM 15.0°F-9.4°C 9.7°F-12.4°C 79% 2.3 mph N3.7 kmh N 4.6 mph7.4 kmh 30.43 in1030.5 mb - 0.00 in0.0 mm 0.00 in0.0 mm
05:50 PM 14.8°F-9.6°C 9.7°F-12.4°C 80% 1.2 mph NNW1.9 kmh NNW 2.3 mph3.7 kmh 30.43 in1030.5 mb - 0.00 in0.0 mm 0.00 in0.0 mm
06:00 PM 14.5°F-9.7°C 9.7°F-12.4°C 81% 1.2 mph NNW1.9 kmh NNW 1.2 mph1.9 kmh 30.43 in1030.5 mb - 0.00 in0.0 mm 0.00 in0.0 mm
06:10 PM 14.4°F-9.8°C 9.6°F-12.4°C 81% 1.2 mph W1.9 kmh W 3.5 mph5.6 kmh 30.43 in1030.5 mb - 0.00 in0.0 mm 0.00 in0.0 mm
06:20 PM 14.4°F-9.8°C 9.9°F-12.3°C 82% 2.3 mph SW3.7 kmh SW 3.5 mph5.6 kmh 30.43 in1030.5 mb - 0.00 in0.0 mm 0.00 in0.0 mm
06:30 PM 13.7°F-10.2°C 9.0°F-12.8°C 81% 1.2 mph WSW1.9 kmh WSW 2.3 mph3.7 kmh 30.43 in1030.5 mb - 0.00 in0.0 mm 0.00 in0.0 mm
06:40 PM 12.8°F-10.7°C 8.3°F-13.2°C 82% 1.2 mph SSW1.9 kmh SSW 2.3 mph3.7 kmh 30.43 in1030.5 mb - 0.00 in0.0 mm 0.00 in0.0 mm
06:50 PM 12.0°F-11.1°C 7.5°F-13.6°C 82% 1.2 mph WSW1.9 kmh WSW 1.2 mph1.9 kmh 30.43 in1030.5 mb - 0.00 in0.0 mm 0.00 in0.0 mm
07:00 PM 11.2°F-11.6°C 7.0°F-13.9°C 83% 1.2 mph SW1.9 kmh SW 2.3 mph3.7 kmh 30.43 in1030.5 mb - 0.00 in0.0 mm 0.00 in0.0 mm
07:10 PM 10.5°F-11.9°C 6.6°F-14.1°C 84% Calm Calm 1.2 mph1.9 kmh 30.43 in1030.5 mb - 0.00 in0.0 mm 0.00 in0.0 mm
07:20 PM 9.9°F-12.3°C 6.3°F-14.3°C 85% 1.2 mph SW1.9 kmh SW 1.2 mph1.9 kmh 30.43 in1030.5 mb - 0.00 in0.0 mm 0.00 in0.0 mm
07:30 PM 9.5°F-12.5°C 5.9°F-14.5°C 85% 1.2 mph SW1.9 kmh SW 2.3 mph3.7 kmh 30.43 in1030.5 mb - 0.00 in0.0 mm 0.00 in0.0 mm
07:40 PM 9.3°F-12.6°C 6.0°F-14.4°C 86% 1.2 mph N1.9 kmh N 2.3 mph3.7 kmh 30.43 in1030.5 mb - 0.00 in0.0 mm 0.00 in0.0 mm
07:50 PM 9.5°F-12.5°C 6.2°F-14.3°C 86% 1.2 mph NNE1.9 kmh NNE 8.1 mph13.0 kmh 30.43 in1030.5 mb - 0.00 in0.0 mm 0.00 in0.0 mm
08:00 PM 9.9°F-12.3°C 6.6°F-14.1°C 86% 1.2 mph N1.9 kmh N 3.5 mph5.6 kmh 30.44 in1030.8 mb - 0.00 in0.0 mm 0.00 in0.0 mm
08:10 PM 10.9°F-11.7°C 7.8°F-13.4°C 87% 1.2 mph N1.9 kmh N 2.3 mph3.7 kmh 30.44 in1030.8 mb - 0.00 in0.0 mm 0.00 in0.0 mm
08:20 PM 11.3°F-11.5°C 8.0°F-13.3°C 86% Calm Calm 3.5 mph5.6 kmh 30.44 in1030.8 mb - 0.00 in0.0 mm 0.00 in0.0 mm
08:30 PM 11.7°F-11.3°C 8.3°F-13.2°C 86% Calm Calm -- 30.44 in1030.8 mb - 0.00 in0.0 mm 0.00 in0.0 mm
08:40 PM 12.0°F-11.1°C 8.6°F-13.0°C 86% 1.2 mph N1.9 kmh N 3.5 mph5.6 kmh 30.44 in1030.8 mb - 0.00 in0.0 mm 0.00 in0.0 mm
08:50 PM 12.2°F-11.0°C 8.9°F-12.8°C 86% 1.2 mph N1.9 kmh N 2.3 mph3.7 kmh 30.44 in1030.8 mb - 0.00 in0.0 mm 0.00 in0.0 mm
09:00 PM 11.9°F-11.2°C 8.3°F-13.2°C 85% Calm Calm 1.2 mph1.9 kmh 30.43 in1030.5 mb - 0.00 in0.0 mm 0.00 in0.0 mm
09:10 PM 11.0°F-11.7°C 7.1°F-13.8°C 84% 1.2 mph NW1.9 kmh NW 2.3 mph3.7 kmh 30.43 in1030.5 mb - 0.00 in0.0 mm 0.00 in0.0 mm
09:20 PM 10.0°F-12.2°C 6.2°F-14.3°C 84% 1.2 mph W1.9 kmh W 2.3 mph3.7 kmh 30.43 in1030.5 mb - 0.00 in0.0 mm 0.00 in0.0 mm
09:30 PM 9.2°F-12.7°C 5.6°F-14.7°C 85% Calm Calm 1.2 mph1.9 kmh 30.43 in1030.5 mb - 0.00 in0.0 mm 0.00 in0.0 mm
09:40 PM 8.4°F-13.1°C 4.8°F-15.1°C 85% 1.2 mph SW1.9 kmh SW 1.2 mph1.9 kmh 30.43 in1030.5 mb - 0.00 in0.0 mm 0.00 in0.0 mm
09:50 PM 7.6°F-13.6°C 4.0°F-15.6°C 85% 1.2 mph SW1.9 kmh SW 2.3 mph3.7 kmh 30.43 in1030.5 mb - 0.00 in0.0 mm 0.00 in0.0 mm
10:00 PM 7.0°F-13.9°C 3.4°F-15.9°C 85% 1.2 mph SW1.9 kmh SW 2.3 mph3.7 kmh 30.43 in1030.5 mb - 0.00 in0.0 mm 0.00 in0.0 mm
10:10 PM 6.5°F-14.2°C 3.2°F-16.0°C 86% 1.2 mph SW1.9 kmh SW 2.3 mph3.7 kmh 30.43 in1030.5 mb - 0.00 in0.0 mm 0.00 in0.0 mm
10:20 PM 6.2°F-14.3°C 2.9°F-16.2°C 86% 1.2 mph SW1.9 kmh SW 2.3 mph3.7 kmh 30.43 in1030.5 mb - 0.00 in0.0 mm 0.00 in0.0 mm
10:30 PM 5.8°F-14.6°C 2.5°F-16.4°C 86% 1.2 mph SW1.9 kmh SW 2.3 mph3.7 kmh 30.43 in1030.5 mb - 0.00 in0.0 mm 0.00 in0.0 mm
10:40 PM 5.5°F-14.7°C 2.2°F-16.6°C 86% 1.2 mph SW1.9 kmh SW 2.3 mph3.7 kmh 30.43 in1030.5 mb - 0.00 in0.0 mm 0.00 in0.0 mm
10:50 PM 5.3°F-14.8°C 2.0°F-16.7°C 86% 1.2 mph SSW1.9 kmh SSW 3.5 mph5.6 kmh 30.42 in1030.1 mb - 0.00 in0.0 mm 0.00 in0.0 mm
11:00 PM 5.0°F-15.0°C 1.7°F-16.8°C 86% 1.2 mph SSW1.9 kmh SSW 3.5 mph5.6 kmh 30.42 in1030.1 mb - 0.00 in0.0 mm 0.00 in0.0 mm
11:10 PM 4.9°F-15.1°C 1.6°F-16.9°C 86% 1.2 mph SSW1.9 kmh SSW 2.3 mph3.7 kmh 30.42 in1030.1 mb - 0.00 in0.0 mm 0.00 in0.0 mm
11:20 PM 4.7°F-15.2°C 1.7°F-16.8°C 87% 2.3 mph SSW3.7 kmh SSW 3.5 mph5.6 kmh 30.42 in1030.1 mb - 0.00 in0.0 mm 0.00 in0.0 mm
11:30 PM 4.8°F-15.1°C 1.8°F-16.8°C 87% 1.2 mph SSW1.9 kmh SSW 2.3 mph3.7 kmh 30.42 in1030.1 mb - 0.00 in0.0 mm 0.00 in0.0 mm
11:40 PM 4.9°F-15.1°C 1.9°F-16.7°C 87% 1.2 mph SSW1.9 kmh SSW 2.3 mph3.7 kmh 30.41 in1029.8 mb - 0.00 in0.0 mm 0.00 in0.0 mm
11:50 PM 4.6°F-15.2°C 1.3°F-17.1°C 86% 1.2 mph SSW1.9 kmh SSW 2.3 mph3.7 kmh 30.42 in1030.1 mb - 0.00 in0.0 mm 0.00 in0.0 mm